sensor_id;sensor_type;location;lat;lon;timestamp;P1;durP1;ratioP1;P2;durP2;ratioP2
45712;SDS011;44920;52.792;18.264;2022-12-07T00:03:20;19.70;;;8.30;;
45712;SDS011;44920;52.792;18.264;2022-12-07T00:05:47;22.60;;;9.80;;
45712;SDS011;44920;52.792;18.264;2022-12-07T00:08:14;35.00;;;13.20;;
45712;SDS011;44920;52.792;18.264;2022-12-07T00:10:41;21.60;;;9.60;;
45712;SDS011;44920;52.792;18.264;2022-12-07T00:13:08;21.90;;;8.50;;
45712;SDS011;44920;52.792;18.264;2022-12-07T00:15:35;18.30;;;8.60;;
45712;SDS011;44920;52.792;18.264;2022-12-07T00:18:02;21.90;;;8.70;;
45712;SDS011;44920;52.792;18.264;2022-12-07T00:20:29;13.50;;;6.20;;
45712;SDS011;44920;52.792;18.264;2022-12-07T00:22:57;16.70;;;8.10;;
45712;SDS011;44920;52.792;18.264;2022-12-07T00:25:24;14.80;;;7.40;;
45712;SDS011;44920;52.792;18.264;2022-12-07T00:27:52;18.30;;;8.00;;
45712;SDS011;44920;52.792;18.264;2022-12-07T00:30:22;18.40;;;8.70;;
45712;SDS011;44920;52.792;18.264;2022-12-07T00:32:50;17.10;;;9.10;;
45712;SDS011;44920;52.792;18.264;2022-12-07T00:35:17;23.20;;;11.80;;
45712;SDS011;44920;52.792;18.264;2022-12-07T00:37:44;25.40;;;12.60;;
45712;SDS011;44920;52.792;18.264;2022-12-07T00:40:11;30.30;;;14.60;;
45712;SDS011;44920;52.792;18.264;2022-12-07T00:42:38;35.70;;;17.50;;
45712;SDS011;44920;52.792;18.264;2022-12-07T00:45:05;30.70;;;15.60;;
45712;SDS011;44920;52.792;18.264;2022-12-07T00:47:33;32.30;;;17.00;;
45712;SDS011;44920;52.792;18.264;2022-12-07T00:50:00;49.20;;;24.20;;
45712;SDS011;44920;52.792;18.264;2022-12-07T00:52:27;37.00;;;20.20;;
45712;SDS011;44920;52.792;18.264;2022-12-07T00:54:54;29.70;;;14.50;;
45712;SDS011;44920;52.792;18.264;2022-12-07T00:57:21;32.00;;;14.70;;
45712;SDS011;44920;52.792;18.264;2022-12-07T00:59:48;23.30;;;13.50;;
45712;SDS011;44920;52.792;18.264;2022-12-07T01:02:15;21.20;;;10.60;;
45712;SDS011;44920;52.792;18.264;2022-12-07T01:04:42;21.30;;;10.40;;
45712;SDS011;44920;52.792;18.264;2022-12-07T01:07:09;18.00;;;9.00;;
45712;SDS011;44920;52.792;18.264;2022-12-07T01:09:36;18.90;;;10.10;;
45712;SDS011;44920;52.792;18.264;2022-12-07T01:12:03;19.50;;;9.10;;
45712;SDS011;44920;52.792;18.264;2022-12-07T01:14:31;17.90;;;8.70;;
45712;SDS011;44920;52.792;18.264;2022-12-07T01:16:58;18.50;;;8.90;;
45712;SDS011;44920;52.792;18.264;2022-12-07T01:19:25;17.70;;;7.30;;
45712;SDS011;44920;52.792;18.264;2022-12-07T01:21:52;17.80;;;8.20;;
45712;SDS011;44920;52.792;18.264;2022-12-07T01:24:19;17.60;;;9.10;;
45712;SDS011;44920;52.792;18.264;2022-12-07T01:26:48;18.70;;;9.00;;
45712;SDS011;44920;52.792;18.264;2022-12-07T01:29:16;21.90;;;9.60;;
45712;SDS011;44920;52.792;18.264;2022-12-07T01:31:43;20.20;;;9.50;;
45712;SDS011;44920;52.792;18.264;2022-12-07T01:34:10;19.50;;;8.80;;
45712;SDS011;44920;52.792;18.264;2022-12-07T01:36:37;16.20;;;8.00;;
45712;SDS011;44920;52.792;18.264;2022-12-07T01:39:05;23.20;;;12.40;;
45712;SDS011;44920;52.792;18.264;2022-12-07T01:41:40;16.00;;;8.30;;
45712;SDS011;44920;52.792;18.264;2022-12-07T01:46:48;13.90;;;6.90;;
45712;SDS011;44920;52.792;18.264;2022-12-07T01:49:20;16.90;;;7.70;;
45712;SDS011;44920;52.792;18.264;2022-12-07T01:51:52;13.70;;;6.70;;
45712;SDS011;44920;52.792;18.264;2022-12-07T01:54:24;13.40;;;6.40;;
45712;SDS011;44920;52.792;18.264;2022-12-07T01:56:53;13.10;;;5.80;;
45712;SDS011;44920;52.792;18.264;2022-12-07T01:59:23;13.50;;;6.20;;
45712;SDS011;44920;52.792;18.264;2022-12-07T02:01:53;12.20;;;5.10;;
45712;SDS011;44920;52.792;18.264;2022-12-07T02:06:49;13.00;;;5.00;;
45712;SDS011;44920;52.792;18.264;2022-12-07T02:09:17;15.60;;;7.00;;
45712;SDS011;44920;52.792;18.264;2022-12-07T02:11:44;14.50;;;5.60;;
45712;SDS011;44920;52.792;18.264;2022-12-07T02:14:11;14.10;;;6.90;;
45712;SDS011;44920;52.792;18.264;2022-12-07T02:16:42;13.00;;;6.50;;
45712;SDS011;44920;52.792;18.264;2022-12-07T02:28:05;14.10;;;6.70;;
45712;SDS011;44920;52.792;18.264;2022-12-07T02:30:40;16.80;;;8.40;;
45712;SDS011;44920;52.792;18.264;2022-12-07T02:33:31;17.90;;;9.80;;
45712;SDS011;44920;52.792;18.264;2022-12-07T02:36:11;13.00;;;5.80;;
45712;SDS011;44920;52.792;18.264;2022-12-07T02:38:48;13.00;;;5.70;;
45712;SDS011;44920;52.792;18.264;2022-12-07T02:41:25;12.70;;;5.40;;
45712;SDS011;44920;52.792;18.264;2022-12-07T02:43:59;12.70;;;5.60;;
45712;SDS011;44920;52.792;18.264;2022-12-07T02:46:37;15.00;;;6.20;;
45712;SDS011;44920;52.792;18.264;2022-12-07T02:49:08;12.00;;;5.70;;
45712;SDS011;44920;52.792;18.264;2022-12-07T02:51:39;14.10;;;6.70;;
45712;SDS011;44920;52.792;18.264;2022-12-07T02:54:17;14.70;;;7.20;;
45712;SDS011;44920;52.792;18.264;2022-12-07T02:56:48;18.40;;;8.10;;
45712;SDS011;44920;52.792;18.264;2022-12-07T03:02:20;18.70;;;8.90;;
45712;SDS011;44920;52.792;18.264;2022-12-07T03:07:54;19.60;;;9.80;;
45712;SDS011;44920;52.792;18.264;2022-12-07T03:21:13;20.90;;;9.90;;
45712;SDS011;44920;52.792;18.264;2022-12-07T03:23:45;23.50;;;10.60;;
45712;SDS011;44920;52.792;18.264;2022-12-07T03:26:16;23.30;;;11.00;;
45712;SDS011;44920;52.792;18.264;2022-12-07T03:28:48;21.70;;;10.10;;
45712;SDS011;44920;52.792;18.264;2022-12-07T03:31:21;23.50;;;11.20;;
45712;SDS011;44920;52.792;18.264;2022-12-07T03:33:56;23.00;;;11.70;;
45712;SDS011;44920;52.792;18.264;2022-12-07T03:39:26;19.30;;;10.90;;
45712;SDS011;44920;52.792;18.264;2022-12-07T03:42:21;24.20;;;11.20;;
45712;SDS011;44920;52.792;18.264;2022-12-07T03:44:48;21.10;;;11.00;;
45712;SDS011;44920;52.792;18.264;2022-12-07T03:52:40;21.70;;;9.70;;
45712;SDS011;44920;52.792;18.264;2022-12-07T03:55:32;22.90;;;10.10;;
45712;SDS011;44920;52.792;18.264;2022-12-07T03:58:04;19.10;;;8.90;;
45712;SDS011;44920;52.792;18.264;2022-12-07T04:00:36;23.80;;;10.40;;
45712;SDS011;44920;52.792;18.264;2022-12-07T04:03:03;19.20;;;9.30;;
45712;SDS011;44920;52.792;18.264;2022-12-07T04:05:30;20.30;;;9.80;;
45712;SDS011;44920;52.792;18.264;2022-12-07T04:07:58;19.00;;;9.80;;
45712;SDS011;44920;52.792;18.264;2022-12-07T04:10:25;21.30;;;10.30;;
45712;SDS011;44920;52.792;18.264;2022-12-07T04:12:52;21.00;;;10.00;;
45712;SDS011;44920;52.792;18.264;2022-12-07T04:15:19;21.60;;;10.10;;
45712;SDS011;44920;52.792;18.264;2022-12-07T04:17:46;21.40;;;10.40;;
45712;SDS011;44920;52.792;18.264;2022-12-07T04:20:13;18.30;;;8.10;;
45712;SDS011;44920;52.792;18.264;2022-12-07T04:22:41;18.70;;;8.70;;
45712;SDS011;44920;52.792;18.264;2022-12-07T04:25:08;18.10;;;8.50;;
45712;SDS011;44920;52.792;18.264;2022-12-07T04:27:35;18.30;;;9.50;;
45712;SDS011;44920;52.792;18.264;2022-12-07T04:30:02;19.00;;;8.70;;
45712;SDS011;44920;52.792;18.264;2022-12-07T04:32:29;17.60;;;8.00;;
45712;SDS011;44920;52.792;18.264;2022-12-07T04:34:56;19.10;;;7.60;;
45712;SDS011;44920;52.792;18.264;2022-12-07T04:37:23;18.00;;;7.80;;
45712;SDS011;44920;52.792;18.264;2022-12-07T04:39:51;17.50;;;6.90;;
45712;SDS011;44920;52.792;18.264;2022-12-07T04:42:18;14.10;;;7.10;;
45712;SDS011;44920;52.792;18.264;2022-12-07T04:44:45;15.60;;;6.80;;
45712;SDS011;44920;52.792;18.264;2022-12-07T04:47:12;16.50;;;6.70;;
45712;SDS011;44920;52.792;18.264;2022-12-07T04:49:39;20.40;;;7.60;;
45712;SDS011;44920;52.792;18.264;2022-12-07T04:52:06;18.20;;;7.90;;
45712;SDS011;44920;52.792;18.264;2022-12-07T04:54:33;22.40;;;8.30;;
45712;SDS011;44920;52.792;18.264;2022-12-07T04:57:00;21.80;;;7.20;;
45712;SDS011;44920;52.792;18.264;2022-12-07T04:59:27;21.60;;;8.90;;
45712;SDS011;44920;52.792;18.264;2022-12-07T05:01:54;20.10;;;7.70;;
45712;SDS011;44920;52.792;18.264;2022-12-07T05:04:21;23.30;;;8.70;;
45712;SDS011;44920;52.792;18.264;2022-12-07T05:06:48;18.50;;;9.00;;
45712;SDS011;44920;52.792;18.264;2022-12-07T05:09:15;15.60;;;7.80;;
45712;SDS011;44920;52.792;18.264;2022-12-07T05:11:42;15.70;;;8.10;;
45712;SDS011;44920;52.792;18.264;2022-12-07T05:14:19;18.70;;;9.20;;
45712;SDS011;44920;52.792;18.264;2022-12-07T05:16:47;17.40;;;8.20;;
45712;SDS011;44920;52.792;18.264;2022-12-07T05:19:16;18.00;;;7.80;;
45712;SDS011;44920;52.792;18.264;2022-12-07T05:21:44;16.60;;;7.90;;
45712;SDS011;44920;52.792;18.264;2022-12-07T05:24:13;16.60;;;7.00;;
45712;SDS011;44920;52.792;18.264;2022-12-07T05:26:41;17.10;;;8.00;;
45712;SDS011;44920;52.792;18.264;2022-12-07T05:29:10;21.30;;;9.00;;
45712;SDS011;44920;52.792;18.264;2022-12-07T05:31:38;21.90;;;9.40;;
45712;SDS011;44920;52.792;18.264;2022-12-07T05:34:06;25.70;;;9.20;;
45712;SDS011;44920;52.792;18.264;2022-12-07T05:36:33;31.10;;;11.20;;
45712;SDS011;44920;52.792;18.264;2022-12-07T05:39:00;22.10;;;9.50;;
45712;SDS011;44920;52.792;18.264;2022-12-07T05:41:27;29.50;;;10.80;;
45712;SDS011;44920;52.792;18.264;2022-12-07T05:44:13;19.20;;;9.70;;
45712;SDS011;44920;52.792;18.264;2022-12-07T05:46:40;31.00;;;11.10;;
45712;SDS011;44920;52.792;18.264;2022-12-07T05:49:07;24.90;;;9.30;;
45712;SDS011;44920;52.792;18.264;2022-12-07T05:51:34;23.10;;;9.70;;
45712;SDS011;44920;52.792;18.264;2022-12-07T05:54:01;28.60;;;10.90;;
45712;SDS011;44920;52.792;18.264;2022-12-07T05:56:29;27.50;;;11.70;;
45712;SDS011;44920;52.792;18.264;2022-12-07T05:58:56;21.40;;;9.20;;
45712;SDS011;44920;52.792;18.264;2022-12-07T06:01:41;25.50;;;9.30;;
45712;SDS011;44920;52.792;18.264;2022-12-07T06:04:08;22.40;;;8.80;;
45712;SDS011;44920;52.792;18.264;2022-12-07T06:06:36;21.60;;;7.90;;
45712;SDS011;44920;52.792;18.264;2022-12-07T06:09:03;25.20;;;10.40;;
45712;SDS011;44920;52.792;18.264;2022-12-07T06:11:30;25.10;;;9.00;;
45712;SDS011;44920;52.792;18.264;2022-12-07T06:17:39;21.70;;;9.90;;
45712;SDS011;44920;52.792;18.264;2022-12-07T06:20:06;18.80;;;8.00;;
45712;SDS011;44920;52.792;18.264;2022-12-07T06:22:34;26.00;;;10.80;;
45712;SDS011;44920;52.792;18.264;2022-12-07T06:25:01;24.70;;;11.10;;
45712;SDS011;44920;52.792;18.264;2022-12-07T06:27:27;29.60;;;12.60;;
45712;SDS011;44920;52.792;18.264;2022-12-07T06:29:54;25.20;;;10.90;;
45712;SDS011;44920;52.792;18.264;2022-12-07T06:32:21;22.10;;;9.30;;
45712;SDS011;44920;52.792;18.264;2022-12-07T06:34:48;19.80;;;8.70;;
45712;SDS011;44920;52.792;18.264;2022-12-07T06:37:15;19.70;;;9.70;;
45712;SDS011;44920;52.792;18.264;2022-12-07T06:39:43;19.30;;;8.80;;
45712;SDS011;44920;52.792;18.264;2022-12-07T06:42:10;18.50;;;9.00;;
45712;SDS011;44920;52.792;18.264;2022-12-07T06:44:37;20.20;;;9.40;;
45712;SDS011;44920;52.792;18.264;2022-12-07T06:47:04;19.40;;;8.90;;
45712;SDS011;44920;52.792;18.264;2022-12-07T06:49:32;20.20;;;9.10;;
45712;SDS011;44920;52.792;18.264;2022-12-07T06:51:59;23.90;;;10.80;;
45712;SDS011;44920;52.792;18.264;2022-12-07T06:54:26;22.80;;;10.20;;
45712;SDS011;44920;52.792;18.264;2022-12-07T06:56:53;24.30;;;11.70;;
45712;SDS011;44920;52.792;18.264;2022-12-07T06:59:21;22.00;;;11.50;;
45712;SDS011;44920;52.792;18.264;2022-12-07T07:01:49;27.00;;;13.90;;
45712;SDS011;44920;52.792;18.264;2022-12-07T07:04:16;25.30;;;12.60;;
45712;SDS011;44920;52.792;18.264;2022-12-07T07:06:43;25.20;;;12.10;;
45712;SDS011;44920;52.792;18.264;2022-12-07T07:09:10;29.20;;;13.80;;
45712;SDS011;44920;52.792;18.264;2022-12-07T07:11:37;25.10;;;12.80;;
45712;SDS011;44920;52.792;18.264;2022-12-07T07:14:04;27.80;;;13.10;;
45712;SDS011;44920;52.792;18.264;2022-12-07T07:16:31;26.90;;;13.60;;
